sensor_id;sensor_type;location;lat;lon;timestamp;P1;durP1;ratioP1;P2;durP2;ratioP2
83278;SDS011;73398;51.844;10.790;2024-03-07T00:02:13;16.13;;;9.55;;
83278;SDS011;73398;51.844;10.790;2024-03-07T00:04:39;23.02;;;13.65;;
83278;SDS011;73398;51.844;10.790;2024-03-07T00:07:05;18.25;;;11.07;;
83278;SDS011;73398;51.844;10.790;2024-03-07T00:09:32;17.65;;;9.60;;
83278;SDS011;73398;51.844;10.790;2024-03-07T00:11:59;17.70;;;9.80;;
83278;SDS011;73398;51.844;10.790;2024-03-07T00:14:25;15.98;;;10.00;;
83278;SDS011;73398;51.844;10.790;2024-03-07T00:16:55;20.77;;;12.50;;
83278;SDS011;73398;51.844;10.790;2024-03-07T00:19:22;37.15;;;22.88;;
83278;SDS011;73398;51.844;10.790;2024-03-07T00:21:52;27.90;;;17.00;;
83278;SDS011;73398;51.844;10.790;2024-03-07T00:24:18;40.33;;;22.15;;
83278;SDS011;73398;51.844;10.790;2024-03-07T00:26:44;27.65;;;15.95;;
83278;SDS011;73398;51.844;10.790;2024-03-07T00:29:10;21.33;;;12.40;;
83278;SDS011;73398;51.844;10.790;2024-03-07T00:31:36;18.40;;;10.73;;
83278;SDS011;73398;51.844;10.790;2024-03-07T00:34:02;18.23;;;11.13;;
83278;SDS011;73398;51.844;10.790;2024-03-07T00:36:28;18.48;;;10.23;;
83278;SDS011;73398;51.844;10.790;2024-03-07T00:38:54;19.80;;;10.98;;
83278;SDS011;73398;51.844;10.790;2024-03-07T00:41:20;16.38;;;9.40;;
83278;SDS011;73398;51.844;10.790;2024-03-07T00:43:46;15.40;;;9.43;;
83278;SDS011;73398;51.844;10.790;2024-03-07T00:46:12;15.07;;;9.15;;
83278;SDS011;73398;51.844;10.790;2024-03-07T00:48:38;15.40;;;8.98;;
83278;SDS011;73398;51.844;10.790;2024-03-07T00:51:04;14.13;;;9.00;;
83278;SDS011;73398;51.844;10.790;2024-03-07T00:53:30;13.13;;;8.50;;
83278;SDS011;73398;51.844;10.790;2024-03-07T00:55:56;14.20;;;8.93;;
83278;SDS011;73398;51.844;10.790;2024-03-07T00:58:22;17.33;;;10.02;;
83278;SDS011;73398;51.844;10.790;2024-03-07T01:00:48;17.08;;;10.25;;
83278;SDS011;73398;51.844;10.790;2024-03-07T01:03:15;18.98;;;10.50;;
83278;SDS011;73398;51.844;10.790;2024-03-07T01:05:42;19.88;;;10.60;;
83278;SDS011;73398;51.844;10.790;2024-03-07T01:08:08;19.15;;;11.15;;
83278;SDS011;73398;51.844;10.790;2024-03-07T01:10:34;19.20;;;10.43;;
83278;SDS011;73398;51.844;10.790;2024-03-07T01:13:00;17.90;;;10.13;;
83278;SDS011;73398;51.844;10.790;2024-03-07T01:15:27;19.27;;;11.45;;
83278;SDS011;73398;51.844;10.790;2024-03-07T01:17:53;15.95;;;9.02;;
83278;SDS011;73398;51.844;10.790;2024-03-07T01:20:19;14.48;;;8.82;;
83278;SDS011;73398;51.844;10.790;2024-03-07T01:22:45;15.68;;;9.73;;
83278;SDS011;73398;51.844;10.790;2024-03-07T01:25:11;17.15;;;9.60;;
83278;SDS011;73398;51.844;10.790;2024-03-07T01:27:37;13.75;;;9.25;;
83278;SDS011;73398;51.844;10.790;2024-03-07T01:30:04;14.52;;;8.65;;
83278;SDS011;73398;51.844;10.790;2024-03-07T01:32:32;14.98;;;7.93;;
83278;SDS011;73398;51.844;10.790;2024-03-07T01:34:58;14.35;;;8.07;;
83278;SDS011;73398;51.844;10.790;2024-03-07T01:37:24;12.82;;;7.85;;
83278;SDS011;73398;51.844;10.790;2024-03-07T01:39:50;12.80;;;8.02;;
83278;SDS011;73398;51.844;10.790;2024-03-07T01:42:16;14.70;;;7.68;;
83278;SDS011;73398;51.844;10.790;2024-03-07T01:44:42;14.38;;;7.95;;
83278;SDS011;73398;51.844;10.790;2024-03-07T01:47:09;15.75;;;8.25;;
83278;SDS011;73398;51.844;10.790;2024-03-07T01:49:35;14.27;;;8.25;;
83278;SDS011;73398;51.844;10.790;2024-03-07T01:52:01;14.55;;;7.97;;
83278;SDS011;73398;51.844;10.790;2024-03-07T01:54:29;14.27;;;8.57;;
83278;SDS011;73398;51.844;10.790;2024-03-07T01:56:56;16.27;;;8.25;;
83278;SDS011;73398;51.844;10.790;2024-03-07T01:59:22;12.68;;;8.05;;
83278;SDS011;73398;51.844;10.790;2024-03-07T02:01:49;13.90;;;8.52;;
83278;SDS011;73398;51.844;10.790;2024-03-07T02:04:15;16.48;;;9.45;;
83278;SDS011;73398;51.844;10.790;2024-03-07T02:06:41;13.85;;;8.68;;
83278;SDS011;73398;51.844;10.790;2024-03-07T02:09:07;13.43;;;8.40;;
83278;SDS011;73398;51.844;10.790;2024-03-07T02:11:33;14.93;;;8.75;;
83278;SDS011;73398;51.844;10.790;2024-03-07T02:13:59;14.20;;;8.20;;
83278;SDS011;73398;51.844;10.790;2024-03-07T02:16:25;15.18;;;9.00;;
83278;SDS011;73398;51.844;10.790;2024-03-07T02:18:51;16.90;;;9.68;;
83278;SDS011;73398;51.844;10.790;2024-03-07T02:21:17;15.75;;;9.10;;
83278;SDS011;73398;51.844;10.790;2024-03-07T02:23:43;14.70;;;8.82;;
83278;SDS011;73398;51.844;10.790;2024-03-07T02:26:09;16.65;;;10.23;;
83278;SDS011;73398;51.844;10.790;2024-03-07T02:28:35;18.17;;;9.80;;
83278;SDS011;73398;51.844;10.790;2024-03-07T02:31:01;17.25;;;10.70;;
83278;SDS011;73398;51.844;10.790;2024-03-07T02:33:27;16.67;;;9.93;;
83278;SDS011;73398;51.844;10.790;2024-03-07T02:35:53;16.45;;;9.57;;
83278;SDS011;73398;51.844;10.790;2024-03-07T02:38:18;17.63;;;9.25;;
83278;SDS011;73398;51.844;10.790;2024-03-07T02:40:45;16.08;;;10.05;;
83278;SDS011;73398;51.844;10.790;2024-03-07T02:43:13;19.13;;;11.63;;
83278;SDS011;73398;51.844;10.790;2024-03-07T02:45:40;14.95;;;9.55;;
83278;SDS011;73398;51.844;10.790;2024-03-07T02:48:06;17.27;;;9.98;;
83278;SDS011;73398;51.844;10.790;2024-03-07T02:50:34;17.90;;;9.60;;
83278;SDS011;73398;51.844;10.790;2024-03-07T02:53:02;22.60;;;11.38;;
83278;SDS011;73398;51.844;10.790;2024-03-07T02:55:28;17.27;;;9.68;;
83278;SDS011;73398;51.844;10.790;2024-03-07T02:57:54;16.05;;;10.30;;
83278;SDS011;73398;51.844;10.790;2024-03-07T03:00:22;17.25;;;10.43;;
83278;SDS011;73398;51.844;10.790;2024-03-07T03:02:52;18.33;;;10.15;;
83278;SDS011;73398;51.844;10.790;2024-03-07T03:05:18;16.08;;;9.38;;
83278;SDS011;73398;51.844;10.790;2024-03-07T03:07:44;17.35;;;10.35;;
83278;SDS011;73398;51.844;10.790;2024-03-07T03:10:19;19.30;;;10.70;;
83278;SDS011;73398;51.844;10.790;2024-03-07T03:12:45;17.77;;;10.77;;
83278;SDS011;73398;51.844;10.790;2024-03-07T03:15:12;17.10;;;10.45;;
83278;SDS011;73398;51.844;10.790;2024-03-07T03:17:40;19.55;;;11.48;;
83278;SDS011;73398;51.844;10.790;2024-03-07T03:20:06;18.58;;;10.88;;
83278;SDS011;73398;51.844;10.790;2024-03-07T03:22:40;18.55;;;10.95;;
83278;SDS011;73398;51.844;10.790;2024-03-07T03:25:08;17.90;;;10.70;;
83278;SDS011;73398;51.844;10.790;2024-03-07T03:27:35;17.25;;;10.73;;
83278;SDS011;73398;51.844;10.790;2024-03-07T03:30:01;19.95;;;11.45;;
83278;SDS011;73398;51.844;10.790;2024-03-07T03:32:29;17.67;;;10.18;;
83278;SDS011;73398;51.844;10.790;2024-03-07T03:34:54;19.42;;;11.73;;
83278;SDS011;73398;51.844;10.790;2024-03-07T03:37:21;21.15;;;11.25;;
83278;SDS011;73398;51.844;10.790;2024-03-07T03:39:46;18.70;;;10.80;;
83278;SDS011;73398;51.844;10.790;2024-03-07T03:42:12;17.98;;;10.35;;
83278;SDS011;73398;51.844;10.790;2024-03-07T03:44:38;20.65;;;11.30;;
83278;SDS011;73398;51.844;10.790;2024-03-07T03:47:04;17.58;;;11.05;;
83278;SDS011;73398;51.844;10.790;2024-03-07T03:49:30;17.63;;;10.73;;
83278;SDS011;73398;51.844;10.790;2024-03-07T03:51:56;17.73;;;10.95;;
83278;SDS011;73398;51.844;10.790;2024-03-07T03:54:24;16.25;;;10.57;;
83278;SDS011;73398;51.844;10.790;2024-03-07T03:56:50;20.48;;;10.90;;
83278;SDS011;73398;51.844;10.790;2024-03-07T03:59:16;19.05;;;10.98;;
83278;SDS011;73398;51.844;10.790;2024-03-07T04:01:42;20.73;;;11.45;;
83278;SDS011;73398;51.844;10.790;2024-03-07T04:04:10;19.48;;;11.57;;
83278;SDS011;73398;51.844;10.790;2024-03-07T04:06:36;18.20;;;10.60;;
83278;SDS011;73398;51.844;10.790;2024-03-07T04:09:01;17.40;;;10.55;;
83278;SDS011;73398;51.844;10.790;2024-03-07T04:11:29;20.45;;;11.35;;
83278;SDS011;73398;51.844;10.790;2024-03-07T04:13:55;20.05;;;10.88;;
83278;SDS011;73398;51.844;10.790;2024-03-07T04:16:21;17.60;;;10.57;;
83278;SDS011;73398;51.844;10.790;2024-03-07T04:18:48;16.60;;;10.27;;
83278;SDS011;73398;51.844;10.790;2024-03-07T04:21:13;21.33;;;11.95;;
83278;SDS011;73398;51.844;10.790;2024-03-07T04:26:09;18.85;;;10.70;;
83278;SDS011;73398;51.844;10.790;2024-03-07T04:28:35;17.92;;;10.43;;
83278;SDS011;73398;51.844;10.790;2024-03-07T04:31:01;17.65;;;10.70;;
83278;SDS011;73398;51.844;10.790;2024-03-07T04:33:27;17.25;;;10.93;;
83278;SDS011;73398;51.844;10.790;2024-03-07T04:35:53;17.85;;;10.90;;
83278;SDS011;73398;51.844;10.790;2024-03-07T04:38:19;19.48;;;12.00;;
83278;SDS011;73398;51.844;10.790;2024-03-07T04:40:45;21.35;;;12.05;;
83278;SDS011;73398;51.844;10.790;2024-03-07T04:43:11;21.23;;;12.55;;
83278;SDS011;73398;51.844;10.790;2024-03-07T04:45:37;20.02;;;11.82;;
83278;SDS011;73398;51.844;10.790;2024-03-07T04:48:03;20.98;;;10.93;;
83278;SDS011;73398;51.844;10.790;2024-03-07T04:50:30;23.85;;;13.48;;
83278;SDS011;73398;51.844;10.790;2024-03-07T04:52:56;22.92;;;12.15;;
83278;SDS011;73398;51.844;10.790;2024-03-07T04:55:22;20.20;;;11.63;;
83278;SDS011;73398;51.844;10.790;2024-03-07T04:57:48;24.40;;;11.80;;
83278;SDS011;73398;51.844;10.790;2024-03-07T05:00:14;23.80;;;12.68;;
83278;SDS011;73398;51.844;10.790;2024-03-07T05:02:40;22.25;;;12.88;;
83278;SDS011;73398;51.844;10.790;2024-03-07T05:05:06;20.98;;;11.52;;
83278;SDS011;73398;51.844;10.790;2024-03-07T05:07:33;26.67;;;13.40;;
83278;SDS011;73398;51.844;10.790;2024-03-07T05:10:00;19.55;;;11.63;;
83278;SDS011;73398;51.844;10.790;2024-03-07T05:12:26;22.45;;;13.32;;
83278;SDS011;73398;51.844;10.790;2024-03-07T05:14:52;26.83;;;13.10;;
83278;SDS011;73398;51.844;10.790;2024-03-07T05:17:18;23.90;;;13.15;;
83278;SDS011;73398;51.844;10.790;2024-03-07T05:19:44;26.70;;;13.50;;
83278;SDS011;73398;51.844;10.790;2024-03-07T05:22:11;23.88;;;13.27;;
83278;SDS011;73398;51.844;10.790;2024-03-07T05:24:40;24.20;;;13.35;;
83278;SDS011;73398;51.844;10.790;2024-03-07T05:27:07;22.83;;;12.65;;
83278;SDS011;73398;51.844;10.790;2024-03-07T05:29:36;23.05;;;11.85;;
83278;SDS011;73398;51.844;10.790;2024-03-07T05:32:19;23.45;;;12.35;;
83278;SDS011;73398;51.844;10.790;2024-03-07T05:34:45;24.40;;;13.07;;
83278;SDS011;73398;51.844;10.790;2024-03-07T05:37:11;26.55;;;13.75;;
83278;SDS011;73398;51.844;10.790;2024-03-07T05:39:38;25.67;;;13.65;;
83278;SDS011;73398;51.844;10.790;2024-03-07T05:42:04;24.65;;;13.45;;
83278;SDS011;73398;51.844;10.790;2024-03-07T05:44:32;25.33;;;14.07;;
83278;SDS011;73398;51.844;10.790;2024-03-07T05:46:57;25.35;;;14.52;;
83278;SDS011;73398;51.844;10.790;2024-03-07T05:49:23;28.55;;;14.90;;
83278;SDS011;73398;51.844;10.790;2024-03-07T05:51:49;25.88;;;13.75;;
83278;SDS011;73398;51.844;10.790;2024-03-07T05:54:15;27.70;;;14.10;;
83278;SDS011;73398;51.844;10.790;2024-03-07T05:56:42;27.27;;;13.43;;
83278;SDS011;73398;51.844;10.790;2024-03-07T05:59:08;26.40;;;13.65;;
83278;SDS011;73398;51.844;10.790;2024-03-07T06:01:34;27.20;;;14.07;;
83278;SDS011;73398;51.844;10.790;2024-03-07T06:04:00;25.45;;;13.02;;
83278;SDS011;73398;51.844;10.790;2024-03-07T06:06:27;26.15;;;12.75;;
83278;SDS011;73398;51.844;10.790;2024-03-07T06:08:53;25.00;;;13.82;;
83278;SDS011;73398;51.844;10.790;2024-03-07T06:11:19;26.48;;;14.23;;
83278;SDS011;73398;51.844;10.790;2024-03-07T06:13:46;25.02;;;14.18;;
83278;SDS011;73398;51.844;10.790;2024-03-07T06:16:12;22.73;;;12.88;;
83278;SDS011;73398;51.844;10.790;2024-03-07T06:18:39;26.13;;;13.63;;
83278;SDS011;73398;51.844;10.790;2024-03-07T06:21:05;24.13;;;13.27;;
83278;SDS011;73398;51.844;10.790;2024-03-07T06:23:31;27.00;;;14.68;;
83278;SDS011;73398;51.844;10.790;2024-03-07T06:25:58;25.63;;;14.57;;
83278;SDS011;73398;51.844;10.790;2024-03-07T06:28:24;25.67;;;13.10;;
83278;SDS011;73398;51.844;10.790;2024-03-07T06:30:50;26.65;;;13.30;;
83278;SDS011;73398;51.844;10.790;2024-03-07T06:33:16;28.38;;;13.85;;
83278;SDS011;73398;51.844;10.790;2024-03-07T06:35:42;27.95;;;13.82;;
83278;SDS011;73398;51.844;10.790;2024-03-07T06:38:09;27.70;;;13.90;;
83278;SDS011;73398;51.844;10.790;2024-03-07T06:40:35;28.60;;;13.32;;
83278;SDS011;73398;51.844;10.790;2024-03-07T06:43:01;31.33;;;14.95;;
83278;SDS011;73398;51.844;10.790;2024-03-07T06:45:29;29.27;;;14.23;;
83278;SDS011;73398;51.844;10.790;2024-03-07T06:47:55;30.65;;;14.55;;
83278;SDS011;73398;51.844;10.790;2024-03-07T06:50:21;35.03;;;15.48;;
83278;SDS011;73398;51.844;10.790;2024-03-07T06:52:48;31.40;;;15.55;;
83278;SDS011;73398;51.844;10.790;2024-03-07T06:55:17;30.88;;;14.63;;
83278;SDS011;73398;51.844;10.790;2024-03-07T06:57:44;32.90;;;14.98;;
83278;SDS011;73398;51.844;10.790;2024-03-07T07:00:10;31.05;;;14.00;;
83278;SDS011;73398;51.844;10.790;2024-03-07T07:02:37;30.25;;;15.38;;
83278;SDS011;73398;51.844;10.790;2024-03-07T07:05:04;27.83;;;15.15;;
83278;SDS011;73398;51.844;10.790;2024-03-07T07:07:35;30.35;;;14.98;;
83278;SDS011;73398;51.844;10.790;2024-03-07T07:10:01;32.13;;;16.02;;
83278;SDS011;73398;51.844;10.790;2024-03-07T07:12:27;33.72;;;15.73;;
83278;SDS011;73398;51.844;10.790;2024-03-07T07:14:54;32.65;;;15.02;;
83278;SDS011;73398;51.844;10.790;2024-03-07T07:17:20;37.17;;;16.20;;
83278;SDS011;73398;51.844;10.790;2024-03-07T07:19:48;34.03;;;15.38;;
83278;SDS011;73398;51.844;10.790;2024-03-07T07:22:14;35.65;;;16.52;;
83278;SDS011;73398;51.844;10.790;2024-03-07T07:24:40;35.95;;;15.98;;
83278;SDS011;73398;51.844;10.790;2024-03-07T07:27:06;40.53;;;16.80;;
83278;SDS011;73398;51.844;10.790;2024-03-07T07:29:33;38.08;;;16.65;;
83278;SDS011;73398;51.844;10.790;2024-03-07T07:31:59;35.33;;;16.33;;
83278;SDS011;73398;51.844;10.790;2024-03-07T07:34:25;37.47;;;16.52;;
83278;SDS011;73398;51.844;10.790;2024-03-07T07:36:51;33.03;;;15.00;;
83278;SDS011;73398;51.844;10.790;2024-03-07T07:39:18;41.63;;;16.33;;
83278;SDS011;73398;51.844;10.790;2024-03-07T07:41:44;36.25;;;15.73;;
83278;SDS011;73398;51.844;10.790;2024-03-07T07:44:10;36.45;;;15.60;;
83278;SDS011;73398;51.844;10.790;2024-03-07T07:46:36;33.58;;;14.38;;
83278;SDS011;73398;51.844;10.790;2024-03-07T07:49:02;38.20;;;15.05;;
83278;SDS011;73398;51.844;10.790;2024-03-07T07:51:28;40.72;;;17.20;;
83278;SDS011;73398;51.844;10.790;2024-03-07T07:53:54;33.78;;;16.13;;
83278;SDS011;73398;51.844;10.790;2024-03-07T07:56:22;36.10;;;15.65;;
83278;SDS011;73398;51.844;10.790;2024-03-07T07:58:47;48.72;;;19.88;;
83278;SDS011;73398;51.844;10.790;2024-03-07T08:01:14;34.33;;;16.70;;
83278;SDS011;73398;51.844;10.790;2024-03-07T08:03:41;45.45;;;17.73;;
83278;SDS011;73398;51.844;10.790;2024-03-07T08:06:08;43.85;;;17.98;;
83278;SDS011;73398;51.844;10.790;2024-03-07T08:08:34;46.28;;;19.38;;
83278;SDS011;73398;51.844;10.790;2024-03-07T08:11:00;61.50;;;20.63;;
83278;SDS011;73398;51.844;10.790;2024-03-07T08:13:26;67.93;;;21.63;;
83278;SDS011;73398;51.844;10.790;2024-03-07T08:15:52;65.50;;;21.88;;
83278;SDS011;73398;51.844;10.790;2024-03-07T08:18:19;56.95;;;20.60;;
83278;SDS011;73398;51.844;10.790;2024-03-07T08:20:45;52.50;;;20.27;;
83278;SDS011;73398;51.844;10.790;2024-03-07T08:23:11;58.80;;;21.90;;
83278;SDS011;73398;51.844;10.790;2024-03-07T08:25:38;51.65;;;19.25;;
83278;SDS011;73398;51.844;10.790;2024-03-07T08:28:07;50.03;;;20.40;;
83278;SDS011;73398;51.844;10.790;2024-03-07T08:30:33;50.92;;;20.63;;
83278;SDS011;73398;51.844;10.790;2024-03-07T08:33:00;55.92;;;21.02;;
83278;SDS011;73398;51.844;10.790;2024-03-07T08:35:29;59.83;;;20.70;;
83278;SDS011;73398;51.844;10.790;2024-03-07T08:37:56;51.20;;;20.85;;
83278;SDS011;73398;51.844;10.790;2024-03-07T08:40:26;47.85;;;18.83;;
83278;SDS011;73398;51.844;10.790;2024-03-07T08:42:56;55.78;;;18.98;;
83278;SDS011;73398;51.844;10.790;2024-03-07T08:45:22;53.13;;;20.38;;
83278;SDS011;73398;51.844;10.790;2024-03-07T08:47:52;49.10;;;18.08;;
83278;SDS011;73398;51.844;10.790;2024-03-07T08:50:21;41.47;;;18.85;;
83278;SDS011;73398;51.844;10.790;2024-03-07T08:52:48;49.28;;;18.55;;
83278;SDS011;73398;51.844;10.790;2024-03-07T08:55:14;46.08;;;18.67;;
83278;SDS011;73398;51.844;10.790;2024-03-07T08:57:41;47.55;;;17.42;;
83278;SDS011;73398;51.844;10.790;2024-03-07T09:00:09;44.72;;;18.35;;
83278;SDS011;73398;51.844;10.790;2024-03-07T09:02:39;42.80;;;17.55;;
83278;SDS011;73398;51.844;10.790;2024-03-07T09:05:07;40.72;;;18.05;;
83278;SDS011;73398;51.844;10.790;2024-03-07T09:07:35;49.28;;;19.42;;
83278;SDS011;73398;51.844;10.790;2024-03-07T09:10:01;42.67;;;16.88;;
83278;SDS011;73398;51.844;10.790;2024-03-07T09:12:27;37.03;;;16.88;;
83278;SDS011;73398;51.844;10.790;2024-03-07T09:14:53;39.92;;;16.45;;
83278;SDS011;73398;51.844;10.790;2024-03-07T09:17:19;38.10;;;16.80;;
83278;SDS011;73398;51.844;10.790;2024-03-07T09:19:45;46.75;;;18.63;;
83278;SDS011;73398;51.844;10.790;2024-03-07T09:22:11;41.22;;;16.60;;
83278;SDS011;73398;51.844;10.790;2024-03-07T09:24:37;39.17;;;16.63;;
83278;SDS011;73398;51.844;10.790;2024-03-07T09:27:04;38.97;;;15.68;;
83278;SDS011;73398;51.844;10.790;2024-03-07T09:29:30;41.03;;;17.45;;
83278;SDS011;73398;51.844;10.790;2024-03-07T09:31:56;39.40;;;16.33;;
83278;SDS011;73398;51.844;10.790;2024-03-07T09:34:22;41.53;;;16.60;;
83278;SDS011;73398;51.844;10.790;2024-03-07T09:36:48;42.78;;;16.13;;
83278;SDS011;73398;51.844;10.790;2024-03-07T09:39:15;35.17;;;15.88;;
83278;SDS011;73398;51.844;10.790;2024-03-07T09:41:41;38.35;;;15.55;;
83278;SDS011;73398;51.844;10.790;2024-03-07T09:44:10;38.00;;;15.65;;
83278;SDS011;73398;51.844;10.790;2024-03-07T09:46:38;35.35;;;15.20;;
83278;SDS011;73398;51.844;10.790;2024-03-07T09:49:04;34.63;;;15.20;;
83278;SDS011;73398;51.844;10.790;2024-03-07T09:51:31;38.42;;;16.17;;
83278;SDS011;73398;51.844;10.790;2024-03-07T09:53:59;35.38;;;15.82;;
83278;SDS011;73398;51.844;10.790;2024-03-07T09:56:26;37.95;;;16.58;;
83278;SDS011;73398;51.844;10.790;2024-03-07T09:58:57;31.45;;;15.02;;
83278;SDS011;73398;51.844;10.790;2024-03-07T10:01:25;34.38;;;16.13;;
83278;SDS011;73398;51.844;10.790;2024-03-07T10:03:52;33.67;;;14.85;;
83278;SDS011;73398;51.844;10.790;2024-03-07T10:06:22;33.13;;;16.25;;
83278;SDS011;73398;51.844;10.790;2024-03-07T10:08:48;31.27;;;15.57;;
83278;SDS011;73398;51.844;10.790;2024-03-07T10:11:14;38.42;;;16.48;;
83278;SDS011;73398;51.844;10.790;2024-03-07T10:13:40;40.08;;;17.05;;
83278;SDS011;73398;51.844;10.790;2024-03-07T10:16:06;34.50;;;16.17;;
83278;SDS011;73398;51.844;10.790;2024-03-07T10:18:33;39.95;;;16.15;;
83278;SDS011;73398;51.844;10.790;2024-03-07T10:20:59;37.38;;;16.63;;
83278;SDS011;73398;51.844;10.790;2024-03-07T10:23:26;33.95;;;14.93;;
83278;SDS011;73398;51.844;10.790;2024-03-07T10:25:52;31.63;;;13.82;;
83278;SDS011;73398;51.844;10.790;2024-03-07T10:28:20;26.98;;;13.48;;
83278;SDS011;73398;51.844;10.790;2024-03-07T10:30:46;29.17;;;13.85;;
83278;SDS011;73398;51.844;10.790;2024-03-07T10:33:15;26.83;;;12.65;;
83278;SDS011;73398;51.844;10.790;2024-03-07T10:35:41;21.73;;;11.07;;
83278;SDS011;73398;51.844;10.790;2024-03-07T10:38:07;16.95;;;9.10;;
83278;SDS011;73398;51.844;10.790;2024-03-07T10:40:36;16.55;;;9.50;;
83278;SDS011;73398;51.844;10.790;2024-03-07T10:43:05;18.63;;;10.20;;
83278;SDS011;73398;51.844;10.790;2024-03-07T10:45:35;18.73;;;10.80;;
83278;SDS011;73398;51.844;10.790;2024-03-07T10:48:03;19.00;;;11.10;;
83278;SDS011;73398;51.844;10.790;2024-03-07T10:50:39;18.85;;;10.70;;
83278;SDS011;73398;51.844;10.790;2024-03-07T10:53:10;19.17;;;9.90;;
83278;SDS011;73398;51.844;10.790;2024-03-07T10:55:42;18.52;;;9.88;;
83278;SDS011;73398;51.844;10.790;2024-03-07T11:00:39;17.42;;;10.20;;
83278;SDS011;73398;51.844;10.790;2024-03-07T11:03:10;16.63;;;9.68;;
83278;SDS011;73398;51.844;10.790;2024-03-07T11:05:36;16.52;;;9.18;;
83278;SDS011;73398;51.844;10.790;2024-03-07T11:08:03;18.83;;;10.30;;
83278;SDS011;73398;51.844;10.790;2024-03-07T11:10:36;17.42;;;10.27;;
83278;SDS011;73398;51.844;10.790;2024-03-07T11:13:03;20.33;;;10.77;;
83278;SDS011;73398;51.844;10.790;2024-03-07T11:15:29;20.45;;;9.18;;
83278;SDS011;73398;51.844;10.790;2024-03-07T11:17:56;15.63;;;8.48;;
83278;SDS011;73398;51.844;10.790;2024-03-07T11:20:24;19.83;;;10.07;;
83278;SDS011;73398;51.844;10.790;2024-03-07T11:22:51;18.95;;;9.13;;
83278;SDS011;73398;51.844;10.790;2024-03-07T11:25:20;14.73;;;9.02;;
83278;SDS011;73398;51.844;10.790;2024-03-07T11:27:54;18.92;;;9.40;;
83278;SDS011;73398;51.844;10.790;2024-03-07T11:30:20;17.20;;;9.25;;
83278;SDS011;73398;51.844;10.790;2024-03-07T11:32:47;14.55;;;8.98;;
83278;SDS011;73398;51.844;10.790;2024-03-07T11:35:15;13.85;;;8.25;;
83278;SDS011;73398;51.844;10.790;2024-03-07T11:37:41;16.23;;;8.57;;
83278;SDS011;73398;51.844;10.790;2024-03-07T11:40:42;13.38;;;8.27;;
83278;SDS011;73398;51.844;10.790;2024-03-07T11:43:02;14.07;;;8.70;;
83278;SDS011;73398;51.844;10.790;2024-03-07T11:45:29;16.73;;;8.75;;
83278;SDS011;73398;51.844;10.790;2024-03-07T11:47:58;17.92;;;9.80;;
83278;SDS011;73398;51.844;10.790;2024-03-07T11:50:36;13.98;;;9.82;;
83278;SDS011;73398;51.844;10.790;2024-03-07T11:53:02;15.20;;;8.52;;
83278;SDS011;73398;51.844;10.790;2024-03-07T11:55:31;15.15;;;9.00;;
83278;SDS011;73398;51.844;10.790;2024-03-07T11:58:29;18.13;;;9.45;;
83278;SDS011;73398;51.844;10.790;2024-03-07T12:00:56;16.80;;;9.23;;
83278;SDS011;73398;51.844;10.790;2024-03-07T12:03:23;15.38;;;9.00;;
83278;SDS011;73398;51.844;10.790;2024-03-07T12:05:50;16.58;;;9.35;;
83278;SDS011;73398;51.844;10.790;2024-03-07T12:08:17;13.98;;;7.95;;
83278;SDS011;73398;51.844;10.790;2024-03-07T12:10:44;17.17;;;9.77;;
83278;SDS011;73398;51.844;10.790;2024-03-07T12:13:10;18.00;;;9.38;;
83278;SDS011;73398;51.844;10.790;2024-03-07T12:15:38;13.82;;;8.50;;
83278;SDS011;73398;51.844;10.790;2024-03-07T12:18:04;18.45;;;10.25;;
83278;SDS011;73398;51.844;10.790;2024-03-07T12:20:35;16.30;;;9.57;;
83278;SDS011;73398;51.844;10.790;2024-03-07T12:23:00;15.05;;;9.02;;
83278;SDS011;73398;51.844;10.790;2024-03-07T12:25:27;15.57;;;9.25;;
83278;SDS011;73398;51.844;10.790;2024-03-07T12:28:00;14.63;;;8.55;;
83278;SDS011;73398;51.844;10.790;2024-03-07T12:30:52;15.30;;;8.00;;
83278;SDS011;73398;51.844;10.790;2024-03-07T12:33:19;15.07;;;8.88;;
83278;SDS011;73398;51.844;10.790;2024-03-07T12:35:45;14.02;;;8.45;;
83278;SDS011;73398;51.844;10.790;2024-03-07T12:38:13;16.52;;;8.65;;
83278;SDS011;73398;51.844;10.790;2024-03-07T12:40:41;14.25;;;8.45;;
83278;SDS011;73398;51.844;10.790;2024-03-07T12:43:17;14.80;;;9.60;;
83278;SDS011;73398;51.844;10.790;2024-03-07T12:45:44;12.70;;;7.95;;
83278;SDS011;73398;51.844;10.790;2024-03-07T12:48:10;12.45;;;8.80;;
83278;SDS011;73398;51.844;10.790;2024-03-07T12:50:39;12.68;;;9.35;;
83278;SDS011;73398;51.844;10.790;2024-03-07T12:53:05;12.27;;;8.95;;
83278;SDS011;73398;51.844;10.790;2024-03-07T12:55:36;12.70;;;8.43;;
83278;SDS011;73398;51.844;10.790;2024-03-07T12:58:02;11.25;;;8.50;;
83278;SDS011;73398;51.844;10.790;2024-03-07T13:00:29;11.70;;;8.68;;
83278;SDS011;73398;51.844;10.790;2024-03-07T13:02:55;12.30;;;8.38;;
83278;SDS011;73398;51.844;10.790;2024-03-07T13:05:22;12.25;;;8.45;;
83278;SDS011;73398;51.844;10.790;2024-03-07T13:07:48;11.90;;;7.90;;
83278;SDS011;73398;51.844;10.790;2024-03-07T13:10:14;12.25;;;8.43;;
83278;SDS011;73398;51.844;10.790;2024-03-07T13:12:41;12.23;;;8.48;;
83278;SDS011;73398;51.844;10.790;2024-03-07T13:15:10;13.15;;;8.65;;
83278;SDS011;73398;51.844;10.790;2024-03-07T13:17:36;10.05;;;8.43;;
83278;SDS011;73398;51.844;10.790;2024-03-07T13:20:01;11.80;;;8.27;;
83278;SDS011;73398;51.844;10.790;2024-03-07T13:22:28;14.88;;;9.25;;
83278;SDS011;73398;51.844;10.790;2024-03-07T13:24:55;12.80;;;7.97;;
83278;SDS011;73398;51.844;10.790;2024-03-07T13:27:20;14.98;;;8.02;;
83278;SDS011;73398;51.844;10.790;2024-03-07T13:29:53;12.52;;;8.27;;
83278;SDS011;73398;51.844;10.790;2024-03-07T13:32:19;11.95;;;8.30;;
83278;SDS011;73398;51.844;10.790;2024-03-07T13:34:44;12.70;;;8.20;;
83278;SDS011;73398;51.844;10.790;2024-03-07T13:37:11;12.60;;;8.52;;
83278;SDS011;73398;51.844;10.790;2024-03-07T13:39:43;11.88;;;8.23;;
83278;SDS011;73398;51.844;10.790;2024-03-07T13:42:08;11.10;;;7.70;;
83278;SDS011;73398;51.844;10.790;2024-03-07T13:44:36;11.43;;;8.25;;
83278;SDS011;73398;51.844;10.790;2024-03-07T13:47:03;13.13;;;7.70;;
83278;SDS011;73398;51.844;10.790;2024-03-07T13:49:31;12.50;;;8.20;;
83278;SDS011;73398;51.844;10.790;2024-03-07T13:51:59;14.75;;;8.73;;
83278;SDS011;73398;51.844;10.790;2024-03-07T13:54:35;12.40;;;8.18;;
83278;SDS011;73398;51.844;10.790;2024-03-07T13:57:08;13.07;;;8.65;;
83278;SDS011;73398;51.844;10.790;2024-03-07T14:10:34;13.48;;;7.55;;
83278;SDS011;73398;51.844;10.790;2024-03-07T14:13:13;13.57;;;8.80;;
83278;SDS011;73398;51.844;10.790;2024-03-07T14:31:40;13.52;;;8.18;;
83278;SDS011;73398;51.844;10.790;2024-03-07T14:34:14;15.13;;;8.02;;
83278;SDS011;73398;51.844;10.790;2024-03-07T14:36:46;10.93;;;7.88;;
83278;SDS011;73398;51.844;10.790;2024-03-07T14:39:18;13.23;;;8.05;;
83278;SDS011;73398;51.844;10.790;2024-03-07T14:41:51;13.88;;;8.63;;
83278;SDS011;73398;51.844;10.790;2024-03-07T14:44:19;14.38;;;8.93;;
83278;SDS011;73398;51.844;10.790;2024-03-07T14:46:46;14.70;;;9.30;;